sensor_id;sensor_type;location;lat;lon;timestamp;P1;durP1;ratioP1;P2;durP2;ratioP2
65373;SDS011;52070;53.760;9.678;2024-01-30T00:01:10;15.65;;;6.85;;
65373;SDS011;52070;53.760;9.678;2024-01-30T00:03:37;13.23;;;6.60;;
65373;SDS011;52070;53.760;9.678;2024-01-30T00:06:04;15.40;;;7.25;;
65373;SDS011;52070;53.760;9.678;2024-01-30T00:08:32;18.00;;;7.63;;
65373;SDS011;52070;53.760;9.678;2024-01-30T00:10:59;14.38;;;7.43;;
65373;SDS011;52070;53.760;9.678;2024-01-30T00:13:26;13.23;;;7.38;;
65373;SDS011;52070;53.760;9.678;2024-01-30T00:15:53;16.15;;;6.45;;
65373;SDS011;52070;53.760;9.678;2024-01-30T00:18:20;12.63;;;6.82;;
65373;SDS011;52070;53.760;9.678;2024-01-30T00:20:47;14.90;;;7.40;;
65373;SDS011;52070;53.760;9.678;2024-01-30T00:23:14;14.75;;;7.68;;
65373;SDS011;52070;53.760;9.678;2024-01-30T00:25:42;17.40;;;7.20;;
65373;SDS011;52070;53.760;9.678;2024-01-30T00:28:10;15.88;;;7.28;;
65373;SDS011;52070;53.760;9.678;2024-01-30T00:30:36;14.10;;;7.43;;
65373;SDS011;52070;53.760;9.678;2024-01-30T00:33:04;13.60;;;7.25;;
65373;SDS011;52070;53.760;9.678;2024-01-30T00:35:31;13.20;;;7.38;;
65373;SDS011;52070;53.760;9.678;2024-01-30T00:37:58;13.70;;;7.03;;
65373;SDS011;52070;53.760;9.678;2024-01-30T00:40:25;15.30;;;6.95;;
65373;SDS011;52070;53.760;9.678;2024-01-30T00:42:53;16.00;;;7.07;;
65373;SDS011;52070;53.760;9.678;2024-01-30T00:45:20;12.18;;;6.38;;
65373;SDS011;52070;53.760;9.678;2024-01-30T00:47:47;17.65;;;8.10;;
65373;SDS011;52070;53.760;9.678;2024-01-30T00:50:14;13.48;;;7.35;;
65373;SDS011;52070;53.760;9.678;2024-01-30T00:52:41;14.30;;;7.20;;
65373;SDS011;52070;53.760;9.678;2024-01-30T00:55:10;13.95;;;6.95;;
65373;SDS011;52070;53.760;9.678;2024-01-30T00:57:37;12.93;;;6.88;;
65373;SDS011;52070;53.760;9.678;2024-01-30T01:00:07;15.23;;;7.45;;
65373;SDS011;52070;53.760;9.678;2024-01-30T01:02:35;13.43;;;7.20;;
65373;SDS011;52070;53.760;9.678;2024-01-30T01:05:02;10.35;;;6.60;;
65373;SDS011;52070;53.760;9.678;2024-01-30T01:07:30;13.15;;;7.13;;
65373;SDS011;52070;53.760;9.678;2024-01-30T01:09:57;13.00;;;6.85;;
65373;SDS011;52070;53.760;9.678;2024-01-30T01:12:24;14.68;;;6.38;;
65373;SDS011;52070;53.760;9.678;2024-01-30T01:14:51;13.07;;;7.25;;
65373;SDS011;52070;53.760;9.678;2024-01-30T01:17:19;16.70;;;7.20;;
65373;SDS011;52070;53.760;9.678;2024-01-30T01:19:46;13.88;;;7.15;;
65373;SDS011;52070;53.760;9.678;2024-01-30T01:22:13;14.75;;;7.30;;
65373;SDS011;52070;53.760;9.678;2024-01-30T01:24:40;14.60;;;7.50;;
65373;SDS011;52070;53.760;9.678;2024-01-30T01:27:07;15.15;;;7.15;;
65373;SDS011;52070;53.760;9.678;2024-01-30T01:29:34;14.85;;;7.80;;
65373;SDS011;52070;53.760;9.678;2024-01-30T01:32:00;12.80;;;6.45;;
65373;SDS011;52070;53.760;9.678;2024-01-30T01:34:29;13.90;;;7.18;;
65373;SDS011;52070;53.760;9.678;2024-01-30T01:36:56;17.45;;;8.10;;
65373;SDS011;52070;53.760;9.678;2024-01-30T01:39:22;15.70;;;7.13;;
65373;SDS011;52070;53.760;9.678;2024-01-30T01:41:50;12.32;;;6.85;;
65373;SDS011;52070;53.760;9.678;2024-01-30T01:44:17;15.63;;;7.22;;
65373;SDS011;52070;53.760;9.678;2024-01-30T01:46:44;16.42;;;7.03;;
65373;SDS011;52070;53.760;9.678;2024-01-30T01:49:11;11.10;;;6.80;;
65373;SDS011;52070;53.760;9.678;2024-01-30T01:51:40;16.92;;;7.50;;
65373;SDS011;52070;53.760;9.678;2024-01-30T01:54:09;12.30;;;6.78;;
65373;SDS011;52070;53.760;9.678;2024-01-30T01:56:36;14.75;;;7.13;;
65373;SDS011;52070;53.760;9.678;2024-01-30T01:59:04;13.80;;;7.05;;
65373;SDS011;52070;53.760;9.678;2024-01-30T02:01:33;14.43;;;7.80;;
65373;SDS011;52070;53.760;9.678;2024-01-30T02:04:00;14.80;;;7.95;;
65373;SDS011;52070;53.760;9.678;2024-01-30T02:06:27;14.57;;;7.35;;
65373;SDS011;52070;53.760;9.678;2024-01-30T02:08:55;16.35;;;7.80;;
65373;SDS011;52070;53.760;9.678;2024-01-30T02:11:23;14.85;;;7.35;;
65373;SDS011;52070;53.760;9.678;2024-01-30T02:13:50;15.25;;;7.55;;
65373;SDS011;52070;53.760;9.678;2024-01-30T02:16:17;12.77;;;6.88;;
65373;SDS011;52070;53.760;9.678;2024-01-30T02:18:44;14.57;;;6.85;;
65373;SDS011;52070;53.760;9.678;2024-01-30T02:21:15;16.00;;;8.00;;
65373;SDS011;52070;53.760;9.678;2024-01-30T02:23:43;16.13;;;7.68;;
65373;SDS011;52070;53.760;9.678;2024-01-30T02:26:10;14.32;;;7.03;;
65373;SDS011;52070;53.760;9.678;2024-01-30T02:28:38;17.33;;;7.45;;
65373;SDS011;52070;53.760;9.678;2024-01-30T02:31:05;15.82;;;7.28;;
65373;SDS011;52070;53.760;9.678;2024-01-30T02:33:32;12.18;;;7.32;;
65373;SDS011;52070;53.760;9.678;2024-01-30T02:35:59;16.45;;;8.07;;
65373;SDS011;52070;53.760;9.678;2024-01-30T02:38:27;14.35;;;7.18;;
65373;SDS011;52070;53.760;9.678;2024-01-30T02:40:54;15.90;;;7.80;;
65373;SDS011;52070;53.760;9.678;2024-01-30T02:43:22;16.98;;;8.10;;
65373;SDS011;52070;53.760;9.678;2024-01-30T02:45:49;17.90;;;7.63;;
65373;SDS011;52070;53.760;9.678;2024-01-30T02:48:16;16.02;;;7.55;;
65373;SDS011;52070;53.760;9.678;2024-01-30T02:50:43;11.50;;;7.07;;
65373;SDS011;52070;53.760;9.678;2024-01-30T02:53:10;15.45;;;7.07;;
65373;SDS011;52070;53.760;9.678;2024-01-30T02:55:38;15.07;;;7.95;;
65373;SDS011;52070;53.760;9.678;2024-01-30T02:58:05;14.65;;;7.63;;
65373;SDS011;52070;53.760;9.678;2024-01-30T03:00:32;11.73;;;7.13;;
65373;SDS011;52070;53.760;9.678;2024-01-30T03:02:59;14.25;;;7.57;;
65373;SDS011;52070;53.760;9.678;2024-01-30T03:05:26;17.63;;;8.55;;
65373;SDS011;52070;53.760;9.678;2024-01-30T03:07:53;13.75;;;7.65;;
65373;SDS011;52070;53.760;9.678;2024-01-30T03:10:20;15.65;;;7.47;;
65373;SDS011;52070;53.760;9.678;2024-01-30T03:12:48;16.02;;;7.70;;
65373;SDS011;52070;53.760;9.678;2024-01-30T03:15:15;17.33;;;7.78;;
65373;SDS011;52070;53.760;9.678;2024-01-30T03:17:42;14.18;;;7.68;;
65373;SDS011;52070;53.760;9.678;2024-01-30T03:20:09;14.52;;;7.85;;
65373;SDS011;52070;53.760;9.678;2024-01-30T03:22:37;14.15;;;7.10;;
65373;SDS011;52070;53.760;9.678;2024-01-30T03:25:04;11.25;;;7.13;;
65373;SDS011;52070;53.760;9.678;2024-01-30T03:27:31;16.00;;;7.97;;
65373;SDS011;52070;53.760;9.678;2024-01-30T03:30:00;16.95;;;7.55;;
65373;SDS011;52070;53.760;9.678;2024-01-30T03:32:27;14.90;;;7.60;;
65373;SDS011;52070;53.760;9.678;2024-01-30T03:34:54;13.98;;;7.68;;
65373;SDS011;52070;53.760;9.678;2024-01-30T03:37:21;14.32;;;7.85;;
65373;SDS011;52070;53.760;9.678;2024-01-30T03:39:48;14.93;;;7.75;;
65373;SDS011;52070;53.760;9.678;2024-01-30T03:42:14;15.15;;;7.53;;
65373;SDS011;52070;53.760;9.678;2024-01-30T03:44:42;14.70;;;7.55;;
65373;SDS011;52070;53.760;9.678;2024-01-30T03:47:10;16.83;;;7.70;;
65373;SDS011;52070;53.760;9.678;2024-01-30T03:49:37;13.38;;;7.70;;
65373;SDS011;52070;53.760;9.678;2024-01-30T03:52:05;11.77;;;7.00;;
65373;SDS011;52070;53.760;9.678;2024-01-30T03:54:31;12.63;;;7.20;;
65373;SDS011;52070;53.760;9.678;2024-01-30T03:56:58;12.55;;;6.97;;
65373;SDS011;52070;53.760;9.678;2024-01-30T03:59:25;13.60;;;6.90;;
65373;SDS011;52070;53.760;9.678;2024-01-30T04:01:52;13.50;;;6.63;;
65373;SDS011;52070;53.760;9.678;2024-01-30T04:04:20;11.43;;;6.72;;
65373;SDS011;52070;53.760;9.678;2024-01-30T04:06:48;12.43;;;6.55;;
65373;SDS011;52070;53.760;9.678;2024-01-30T04:09:15;13.25;;;6.65;;
65373;SDS011;52070;53.760;9.678;2024-01-30T04:11:42;14.00;;;7.68;;
65373;SDS011;52070;53.760;9.678;2024-01-30T04:14:09;14.75;;;7.13;;
65373;SDS011;52070;53.760;9.678;2024-01-30T04:16:36;12.80;;;6.38;;
65373;SDS011;52070;53.760;9.678;2024-01-30T04:19:04;13.48;;;6.45;;
65373;SDS011;52070;53.760;9.678;2024-01-30T04:21:32;11.65;;;6.65;;
65373;SDS011;52070;53.760;9.678;2024-01-30T04:23:59;13.27;;;6.88;;
65373;SDS011;52070;53.760;9.678;2024-01-30T04:26:26;11.48;;;6.65;;
65373;SDS011;52070;53.760;9.678;2024-01-30T04:28:53;11.05;;;6.95;;
65373;SDS011;52070;53.760;9.678;2024-01-30T04:31:20;18.08;;;7.15;;
65373;SDS011;52070;53.760;9.678;2024-01-30T04:33:47;13.93;;;7.80;;
65373;SDS011;52070;53.760;9.678;2024-01-30T04:36:13;12.40;;;6.13;;
65373;SDS011;52070;53.760;9.678;2024-01-30T04:38:42;15.40;;;7.45;;
65373;SDS011;52070;53.760;9.678;2024-01-30T04:41:09;13.77;;;6.88;;
65373;SDS011;52070;53.760;9.678;2024-01-30T04:43:35;12.27;;;6.85;;
65373;SDS011;52070;53.760;9.678;2024-01-30T04:46:03;11.50;;;6.45;;
65373;SDS011;52070;53.760;9.678;2024-01-30T04:48:30;14.32;;;6.68;;
65373;SDS011;52070;53.760;9.678;2024-01-30T04:50:58;15.02;;;6.75;;
65373;SDS011;52070;53.760;9.678;2024-01-30T04:53:27;13.02;;;6.40;;
65373;SDS011;52070;53.760;9.678;2024-01-30T04:55:55;13.80;;;6.85;;
65373;SDS011;52070;53.760;9.678;2024-01-30T04:58:22;13.00;;;7.20;;
65373;SDS011;52070;53.760;9.678;2024-01-30T05:00:49;10.85;;;6.10;;
65373;SDS011;52070;53.760;9.678;2024-01-30T05:03:17;12.48;;;6.85;;
65373;SDS011;52070;53.760;9.678;2024-01-30T05:05:44;13.05;;;6.78;;
65373;SDS011;52070;53.760;9.678;2024-01-30T05:08:11;19.52;;;7.03;;
65373;SDS011;52070;53.760;9.678;2024-01-30T05:10:38;16.70;;;7.80;;
65373;SDS011;52070;53.760;9.678;2024-01-30T05:13:06;12.80;;;7.20;;
65373;SDS011;52070;53.760;9.678;2024-01-30T05:15:33;13.60;;;7.22;;
65373;SDS011;52070;53.760;9.678;2024-01-30T05:18:00;12.93;;;7.28;;
65373;SDS011;52070;53.760;9.678;2024-01-30T05:20:27;14.82;;;7.72;;
65373;SDS011;52070;53.760;9.678;2024-01-30T05:22:54;18.42;;;7.88;;
65373;SDS011;52070;53.760;9.678;2024-01-30T05:25:21;16.92;;;8.07;;
65373;SDS011;52070;53.760;9.678;2024-01-30T05:27:49;14.48;;;7.28;;
65373;SDS011;52070;53.760;9.678;2024-01-30T05:30:17;13.30;;;7.57;;
65373;SDS011;52070;53.760;9.678;2024-01-30T05:32:45;20.85;;;7.93;;
65373;SDS011;52070;53.760;9.678;2024-01-30T05:35:11;14.07;;;8.38;;
65373;SDS011;52070;53.760;9.678;2024-01-30T05:37:37;19.00;;;8.32;;
65373;SDS011;52070;53.760;9.678;2024-01-30T05:40:05;13.77;;;7.60;;
65373;SDS011;52070;53.760;9.678;2024-01-30T05:42:33;18.38;;;7.82;;
65373;SDS011;52070;53.760;9.678;2024-01-30T05:45:00;13.27;;;8.02;;
65373;SDS011;52070;53.760;9.678;2024-01-30T05:47:28;14.65;;;7.97;;
65373;SDS011;52070;53.760;9.678;2024-01-30T05:49:55;16.50;;;8.10;;
65373;SDS011;52070;53.760;9.678;2024-01-30T05:52:22;15.90;;;7.68;;
65373;SDS011;52070;53.760;9.678;2024-01-30T05:54:49;17.83;;;8.98;;
65373;SDS011;52070;53.760;9.678;2024-01-30T05:57:16;15.77;;;8.57;;
65373;SDS011;52070;53.760;9.678;2024-01-30T05:59:44;15.07;;;8.88;;
65373;SDS011;52070;53.760;9.678;2024-01-30T06:02:13;18.43;;;9.17;;
65373;SDS011;52070;53.760;9.678;2024-01-30T06:04:41;16.25;;;8.07;;
65373;SDS011;52070;53.760;9.678;2024-01-30T06:07:09;17.80;;;8.80;;
65373;SDS011;52070;53.760;9.678;2024-01-30T06:09:36;15.10;;;8.10;;
65373;SDS011;52070;53.760;9.678;2024-01-30T06:12:04;16.67;;;9.45;;
65373;SDS011;52070;53.760;9.678;2024-01-30T06:14:31;16.90;;;8.38;;
65373;SDS011;52070;53.760;9.678;2024-01-30T06:16:59;14.32;;;8.45;;
65373;SDS011;52070;53.760;9.678;2024-01-30T06:19:26;17.10;;;8.93;;
65373;SDS011;52070;53.760;9.678;2024-01-30T06:21:54;21.73;;;9.18;;
65373;SDS011;52070;53.760;9.678;2024-01-30T06:24:21;17.65;;;8.43;;
65373;SDS011;52070;53.760;9.678;2024-01-30T06:26:48;12.82;;;7.78;;
65373;SDS011;52070;53.760;9.678;2024-01-30T06:29:15;15.68;;;8.07;;
65373;SDS011;52070;53.760;9.678;2024-01-30T06:31:42;14.90;;;7.93;;
65373;SDS011;52070;53.760;9.678;2024-01-30T06:34:09;14.25;;;8.40;;
65373;SDS011;52070;53.760;9.678;2024-01-30T06:36:37;17.50;;;8.48;;
65373;SDS011;52070;53.760;9.678;2024-01-30T06:39:06;14.75;;;9.18;;
65373;SDS011;52070;53.760;9.678;2024-01-30T06:41:33;13.98;;;8.50;;
65373;SDS011;52070;53.760;9.678;2024-01-30T06:44:01;17.02;;;8.27;;
65373;SDS011;52070;53.760;9.678;2024-01-30T06:46:29;14.00;;;8.32;;
65373;SDS011;52070;53.760;9.678;2024-01-30T06:48:56;22.27;;;9.88;;
65373;SDS011;52070;53.760;9.678;2024-01-30T06:51:23;15.82;;;8.23;;
65373;SDS011;52070;53.760;9.678;2024-01-30T06:53:50;14.90;;;8.60;;
65373;SDS011;52070;53.760;9.678;2024-01-30T06:56:18;15.18;;;8.70;;
65373;SDS011;52070;53.760;9.678;2024-01-30T06:58:46;18.02;;;9.20;;
65373;SDS011;52070;53.760;9.678;2024-01-30T07:01:13;17.00;;;8.93;;
65373;SDS011;52070;53.760;9.678;2024-01-30T07:03:40;17.08;;;8.40;;
65373;SDS011;52070;53.760;9.678;2024-01-30T07:06:08;13.70;;;8.07;;
65373;SDS011;52070;53.760;9.678;2024-01-30T07:08:36;13.48;;;8.20;;
65373;SDS011;52070;53.760;9.678;2024-01-30T07:11:04;16.10;;;8.38;;
65373;SDS011;52070;53.760;9.678;2024-01-30T07:13:33;15.35;;;8.07;;
65373;SDS011;52070;53.760;9.678;2024-01-30T07:16:01;15.13;;;8.85;;
65373;SDS011;52070;53.760;9.678;2024-01-30T07:18:28;15.07;;;8.48;;
65373;SDS011;52070;53.760;9.678;2024-01-30T07:20:54;17.33;;;8.40;;
65373;SDS011;52070;53.760;9.678;2024-01-30T07:23:21;18.20;;;8.52;;
65373;SDS011;52070;53.760;9.678;2024-01-30T07:25:48;15.45;;;8.60;;
65373;SDS011;52070;53.760;9.678;2024-01-30T07:28:15;18.40;;;9.35;;
65373;SDS011;52070;53.760;9.678;2024-01-30T07:30:44;16.30;;;8.55;;
65373;SDS011;52070;53.760;9.678;2024-01-30T07:33:11;15.10;;;8.73;;
65373;SDS011;52070;53.760;9.678;2024-01-30T07:35:38;13.77;;;8.70;;
65373;SDS011;52070;53.760;9.678;2024-01-30T07:38:05;16.13;;;8.45;;
65373;SDS011;52070;53.760;9.678;2024-01-30T07:40:32;16.92;;;9.25;;
65373;SDS011;52070;53.760;9.678;2024-01-30T07:42:59;16.85;;;9.57;;
65373;SDS011;52070;53.760;9.678;2024-01-30T07:45:26;14.73;;;8.45;;
65373;SDS011;52070;53.760;9.678;2024-01-30T07:47:59;17.40;;;9.80;;
65373;SDS011;52070;53.760;9.678;2024-01-30T07:50:26;20.63;;;11.30;;
65373;SDS011;52070;53.760;9.678;2024-01-30T07:52:55;17.10;;;9.80;;
65373;SDS011;52070;53.760;9.678;2024-01-30T07:55:22;22.42;;;10.88;;
65373;SDS011;52070;53.760;9.678;2024-01-30T07:57:50;19.20;;;10.70;;
65373;SDS011;52070;53.760;9.678;2024-01-30T08:00:18;22.65;;;10.20;;
65373;SDS011;52070;53.760;9.678;2024-01-30T08:02:46;16.27;;;9.93;;
65373;SDS011;52070;53.760;9.678;2024-01-30T08:05:14;20.77;;;10.20;;
65373;SDS011;52070;53.760;9.678;2024-01-30T08:07:41;21.70;;;10.45;;
65373;SDS011;52070;53.760;9.678;2024-01-30T08:10:10;17.45;;;9.68;;
65373;SDS011;52070;53.760;9.678;2024-01-30T08:12:38;20.98;;;10.80;;
65373;SDS011;52070;53.760;9.678;2024-01-30T08:15:05;21.23;;;11.40;;
65373;SDS011;52070;53.760;9.678;2024-01-30T08:17:33;23.77;;;11.25;;
65373;SDS011;52070;53.760;9.678;2024-01-30T08:20:00;20.50;;;11.10;;
65373;SDS011;52070;53.760;9.678;2024-01-30T08:22:30;21.45;;;10.65;;
65373;SDS011;52070;53.760;9.678;2024-01-30T08:24:57;18.52;;;10.40;;
65373;SDS011;52070;53.760;9.678;2024-01-30T08:27:24;21.67;;;10.32;;
65373;SDS011;52070;53.760;9.678;2024-01-30T08:29:51;18.83;;;10.60;;
65373;SDS011;52070;53.760;9.678;2024-01-30T08:32:18;18.25;;;9.32;;
65373;SDS011;52070;53.760;9.678;2024-01-30T08:34:45;18.13;;;10.30;;
65373;SDS011;52070;53.760;9.678;2024-01-30T08:37:12;17.35;;;9.88;;
65373;SDS011;52070;53.760;9.678;2024-01-30T08:39:43;16.15;;;9.10;;
65373;SDS011;52070;53.760;9.678;2024-01-30T08:42:10;20.58;;;10.50;;
65373;SDS011;52070;53.760;9.678;2024-01-30T08:44:37;19.27;;;9.23;;
65373;SDS011;52070;53.760;9.678;2024-01-30T08:47:04;15.55;;;9.63;;
65373;SDS011;52070;53.760;9.678;2024-01-30T08:49:31;15.93;;;9.75;;
65373;SDS011;52070;53.760;9.678;2024-01-30T08:51:58;19.77;;;9.70;;
65373;SDS011;52070;53.760;9.678;2024-01-30T08:54:25;19.60;;;9.27;;
65373;SDS011;52070;53.760;9.678;2024-01-30T08:56:53;15.43;;;9.43;;
65373;SDS011;52070;53.760;9.678;2024-01-30T08:59:21;16.98;;;9.18;;
65373;SDS011;52070;53.760;9.678;2024-01-30T09:01:48;15.80;;;8.63;;
65373;SDS011;52070;53.760;9.678;2024-01-30T09:04:18;16.25;;;9.88;;
65373;SDS011;52070;53.760;9.678;2024-01-30T09:06:45;19.02;;;9.40;;
65373;SDS011;52070;53.760;9.678;2024-01-30T09:09:12;19.92;;;9.30;;
65373;SDS011;52070;53.760;9.678;2024-01-30T09:11:40;18.67;;;8.90;;
65373;SDS011;52070;53.760;9.678;2024-01-30T09:14:08;18.65;;;9.32;;
65373;SDS011;52070;53.760;9.678;2024-01-30T09:16:35;17.48;;;8.48;;
65373;SDS011;52070;53.760;9.678;2024-01-30T09:19:02;15.98;;;9.20;;
65373;SDS011;52070;53.760;9.678;2024-01-30T09:21:29;14.50;;;8.45;;
65373;SDS011;52070;53.760;9.678;2024-01-30T09:24:01;18.00;;;8.80;;
65373;SDS011;52070;53.760;9.678;2024-01-30T09:26:29;16.67;;;8.68;;
65373;SDS011;52070;53.760;9.678;2024-01-30T09:28:56;15.52;;;8.68;;
65373;SDS011;52070;53.760;9.678;2024-01-30T09:31:25;13.95;;;8.00;;
65373;SDS011;52070;53.760;9.678;2024-01-30T09:33:51;14.95;;;8.50;;
65373;SDS011;52070;53.760;9.678;2024-01-30T09:36:19;16.73;;;8.52;;
65373;SDS011;52070;53.760;9.678;2024-01-30T09:38:46;15.85;;;8.73;;
65373;SDS011;52070;53.760;9.678;2024-01-30T09:41:13;17.45;;;8.88;;
65373;SDS011;52070;53.760;9.678;2024-01-30T09:43:42;14.40;;;8.35;;
65373;SDS011;52070;53.760;9.678;2024-01-30T09:46:14;13.77;;;8.30;;
65373;SDS011;52070;53.760;9.678;2024-01-30T09:48:44;12.48;;;7.90;;
65373;SDS011;52070;53.760;9.678;2024-01-30T09:51:13;13.57;;;7.67;;
65373;SDS011;52070;53.760;9.678;2024-01-30T09:53:41;14.70;;;8.63;;
65373;SDS011;52070;53.760;9.678;2024-01-30T09:56:09;16.30;;;8.15;;
65373;SDS011;52070;53.760;9.678;2024-01-30T09:58:36;12.88;;;7.75;;
65373;SDS011;52070;53.760;9.678;2024-01-30T10:01:05;14.70;;;8.18;;
65373;SDS011;52070;53.760;9.678;2024-01-30T10:03:32;15.63;;;8.35;;
65373;SDS011;52070;53.760;9.678;2024-01-30T10:06:01;16.75;;;8.32;;
65373;SDS011;52070;53.760;9.678;2024-01-30T10:08:28;12.57;;;8.02;;
65373;SDS011;52070;53.760;9.678;2024-01-30T10:10:55;12.82;;;8.25;;
65373;SDS011;52070;53.760;9.678;2024-01-30T10:13:22;13.85;;;8.40;;
65373;SDS011;52070;53.760;9.678;2024-01-30T10:15:49;11.70;;;7.82;;
65373;SDS011;52070;53.760;9.678;2024-01-30T10:18:17;12.43;;;7.10;;
65373;SDS011;52070;53.760;9.678;2024-01-30T10:20:45;13.82;;;7.80;;
65373;SDS011;52070;53.760;9.678;2024-01-30T10:23:13;17.30;;;7.78;;
65373;SDS011;52070;53.760;9.678;2024-01-30T10:25:40;11.82;;;7.38;;
65373;SDS011;52070;53.760;9.678;2024-01-30T10:28:07;13.93;;;7.40;;
65373;SDS011;52070;53.760;9.678;2024-01-30T10:30:34;13.18;;;8.20;;
65373;SDS011;52070;53.760;9.678;2024-01-30T10:33:01;21.77;;;7.95;;
65373;SDS011;52070;53.760;9.678;2024-01-30T10:35:29;14.88;;;7.97;;
65373;SDS011;52070;53.760;9.678;2024-01-30T10:37:56;13.77;;;8.02;;
65373;SDS011;52070;53.760;9.678;2024-01-30T10:40:27;16.55;;;8.05;;
65373;SDS011;52070;53.760;9.678;2024-01-30T10:45:22;13.82;;;7.72;;
65373;SDS011;52070;53.760;9.678;2024-01-30T10:47:54;12.40;;;7.57;;
65373;SDS011;52070;53.760;9.678;2024-01-30T10:50:23;12.18;;;7.35;;
65373;SDS011;52070;53.760;9.678;2024-01-30T10:52:51;15.95;;;7.70;;
65373;SDS011;52070;53.760;9.678;2024-01-30T10:55:19;14.00;;;8.00;;
65373;SDS011;52070;53.760;9.678;2024-01-30T10:57:49;12.00;;;8.00;;
65373;SDS011;52070;53.760;9.678;2024-01-30T11:00:17;16.15;;;7.63;;
65373;SDS011;52070;53.760;9.678;2024-01-30T11:02:48;15.27;;;8.10;;
65373;SDS011;52070;53.760;9.678;2024-01-30T11:05:19;15.43;;;8.40;;
65373;SDS011;52070;53.760;9.678;2024-01-30T11:07:50;14.35;;;8.23;;
65373;SDS011;52070;53.760;9.678;2024-01-30T11:10:17;13.15;;;7.88;;
65373;SDS011;52070;53.760;9.678;2024-01-30T11:12:45;14.18;;;7.65;;
65373;SDS011;52070;53.760;9.678;2024-01-30T11:15:15;15.00;;;7.88;;
65373;SDS011;52070;53.760;9.678;2024-01-30T11:17:43;11.82;;;7.57;;
65373;SDS011;52070;53.760;9.678;2024-01-30T11:20:11;13.48;;;7.88;;
65373;SDS011;52070;53.760;9.678;2024-01-30T11:22:41;15.23;;;7.82;;
65373;SDS011;52070;53.760;9.678;2024-01-30T11:25:12;14.82;;;7.40;;
65373;SDS011;52070;53.760;9.678;2024-01-30T11:27:41;15.55;;;7.22;;
65373;SDS011;52070;53.760;9.678;2024-01-30T11:30:08;13.73;;;7.32;;
65373;SDS011;52070;53.760;9.678;2024-01-30T11:32:37;17.58;;;7.88;;
65373;SDS011;52070;53.760;9.678;2024-01-30T11:35:04;13.35;;;7.72;;
65373;SDS011;52070;53.760;9.678;2024-01-30T11:37:36;14.33;;;7.37;;
65373;SDS011;52070;53.760;9.678;2024-01-30T11:40:04;18.48;;;7.78;;
65373;SDS011;52070;53.760;9.678;2024-01-30T11:42:31;14.73;;;7.57;;
65373;SDS011;52070;53.760;9.678;2024-01-30T11:45:00;12.30;;;7.32;;
65373;SDS011;52070;53.760;9.678;2024-01-30T11:47:27;12.23;;;7.53;;
65373;SDS011;52070;53.760;9.678;2024-01-30T11:49:56;13.18;;;7.90;;
65373;SDS011;52070;53.760;9.678;2024-01-30T11:52:23;12.73;;;7.68;;
65373;SDS011;52070;53.760;9.678;2024-01-30T11:54:50;13.18;;;7.53;;
65373;SDS011;52070;53.760;9.678;2024-01-30T11:57:17;15.75;;;7.72;;
65373;SDS011;52070;53.760;9.678;2024-01-30T11:59:44;13.55;;;7.90;;
65373;SDS011;52070;53.760;9.678;2024-01-30T12:02:15;15.05;;;7.18;;
65373;SDS011;52070;53.760;9.678;2024-01-30T12:04:42;20.85;;;7.70;;
65373;SDS011;52070;53.760;9.678;2024-01-30T12:07:10;16.15;;;7.72;;
65373;SDS011;52070;53.760;9.678;2024-01-30T12:09:37;14.85;;;7.93;;
65373;SDS011;52070;53.760;9.678;2024-01-30T12:12:06;15.45;;;7.20;;
65373;SDS011;52070;53.760;9.678;2024-01-30T12:14:37;15.52;;;8.27;;
65373;SDS011;52070;53.760;9.678;2024-01-30T12:17:05;14.68;;;8.05;;
65373;SDS011;52070;53.760;9.678;2024-01-30T12:19:33;13.25;;;7.13;;
65373;SDS011;52070;53.760;9.678;2024-01-30T12:22:00;14.00;;;7.97;;
65373;SDS011;52070;53.760;9.678;2024-01-30T12:24:29;14.20;;;7.78;;
65373;SDS011;52070;53.760;9.678;2024-01-30T12:26:56;16.13;;;7.55;;
65373;SDS011;52070;53.760;9.678;2024-01-30T12:29:24;13.20;;;7.45;;
65373;SDS011;52070;53.760;9.678;2024-01-30T12:31:52;14.65;;;7.68;;
65373;SDS011;52070;53.760;9.678;2024-01-30T12:34:19;15.48;;;8.20;;
65373;SDS011;52070;53.760;9.678;2024-01-30T12:36:47;15.95;;;7.07;;
65373;SDS011;52070;53.760;9.678;2024-01-30T12:39:14;13.50;;;7.97;;
65373;SDS011;52070;53.760;9.678;2024-01-30T12:41:43;11.73;;;7.00;;
65373;SDS011;52070;53.760;9.678;2024-01-30T12:44:09;12.98;;;7.10;;
65373;SDS011;52070;53.760;9.678;2024-01-30T12:46:36;16.80;;;8.07;;
65373;SDS011;52070;53.760;9.678;2024-01-30T12:49:03;19.20;;;7.50;;
65373;SDS011;52070;53.760;9.678;2024-01-30T12:51:31;12.45;;;7.60;;
65373;SDS011;52070;53.760;9.678;2024-01-30T12:54:04;15.47;;;8.03;;
65373;SDS011;52070;53.760;9.678;2024-01-30T12:56:31;15.30;;;7.38;;
65373;SDS011;52070;53.760;9.678;2024-01-30T12:59:00;14.73;;;7.38;;
65373;SDS011;52070;53.760;9.678;2024-01-30T13:01:27;14.43;;;7.35;;
65373;SDS011;52070;53.760;9.678;2024-01-30T13:03:54;15.70;;;7.82;;
65373;SDS011;52070;53.760;9.678;2024-01-30T13:06:22;14.52;;;7.72;;
65373;SDS011;52070;53.760;9.678;2024-01-30T13:08:49;17.90;;;7.65;;
65373;SDS011;52070;53.760;9.678;2024-01-30T13:11:16;13.38;;;6.75;;
65373;SDS011;52070;53.760;9.678;2024-01-30T13:13:44;15.05;;;7.20;;
65373;SDS011;52070;53.760;9.678;2024-01-30T13:16:12;11.40;;;7.72;;
65373;SDS011;52070;53.760;9.678;2024-01-30T13:18:39;14.55;;;7.68;;
65373;SDS011;52070;53.760;9.678;2024-01-30T13:21:06;21.73;;;7.80;;
65373;SDS011;52070;53.760;9.678;2024-01-30T13:23:33;19.25;;;7.60;;
65373;SDS011;52070;53.760;9.678;2024-01-30T13:26:00;12.00;;;7.65;;
65373;SDS011;52070;53.760;9.678;2024-01-30T13:28:28;13.70;;;7.40;;
65373;SDS011;52070;53.760;9.678;2024-01-30T13:30:54;16.13;;;7.63;;
65373;SDS011;52070;53.760;9.678;2024-01-30T13:33:24;17.52;;;8.00;;
65373;SDS011;52070;53.760;9.678;2024-01-30T13:35:51;16.85;;;8.02;;
65373;SDS011;52070;53.760;9.678;2024-01-30T13:38:18;15.40;;;7.45;;
65373;SDS011;52070;53.760;9.678;2024-01-30T13:40:45;16.27;;;7.55;;
65373;SDS011;52070;53.760;9.678;2024-01-30T13:43:12;13.00;;;7.43;;
65373;SDS011;52070;53.760;9.678;2024-01-30T13:45:39;14.65;;;7.75;;
65373;SDS011;52070;53.760;9.678;2024-01-30T13:48:07;16.10;;;7.78;;
65373;SDS011;52070;53.760;9.678;2024-01-30T13:50:35;15.57;;;8.00;;
65373;SDS011;52070;53.760;9.678;2024-01-30T13:53:02;16.48;;;7.80;;
65373;SDS011;52070;53.760;9.678;2024-01-30T13:55:30;13.93;;;7.75;;
65373;SDS011;52070;53.760;9.678;2024-01-30T13:57:57;14.75;;;7.22;;
65373;SDS011;52070;53.760;9.678;2024-01-30T14:00:23;16.52;;;8.25;;
65373;SDS011;52070;53.760;9.678;2024-01-30T14:02:51;17.75;;;8.27;;
65373;SDS011;52070;53.760;9.678;2024-01-30T14:05:20;14.50;;;7.80;;
65373;SDS011;52070;53.760;9.678;2024-01-30T14:07:49;15.07;;;7.88;;
65373;SDS011;52070;53.760;9.678;2024-01-30T14:10:16;12.98;;;7.60;;
65373;SDS011;52070;53.760;9.678;2024-01-30T14:12:43;15.18;;;10.15;;
65373;SDS011;52070;53.760;9.678;2024-01-30T14:15:10;18.20;;;7.55;;
65373;SDS011;52070;53.760;9.678;2024-01-30T14:17:38;17.00;;;8.52;;
65373;SDS011;52070;53.760;9.678;2024-01-30T14:20:06;14.70;;;7.65;;
65373;SDS011;52070;53.760;9.678;2024-01-30T14:22:34;20.27;;;7.38;;
65373;SDS011;52070;53.760;9.678;2024-01-30T14:25:02;13.73;;;7.50;;
65373;SDS011;52070;53.760;9.678;2024-01-30T14:27:30;13.07;;;7.65;;
65373;SDS011;52070;53.760;9.678;2024-01-30T14:29:57;17.45;;;8.38;;
65373;SDS011;52070;53.760;9.678;2024-01-30T14:32:24;12.90;;;7.50;;
65373;SDS011;52070;53.760;9.678;2024-01-30T14:34:51;14.60;;;7.60;;
65373;SDS011;52070;53.760;9.678;2024-01-30T14:37:18;20.85;;;8.57;;